sensor_id;sensor_type;location;lat;lon;timestamp;pressure;altitude;pressure_sealevel;temperature;humidity
51053;BME280;37093;37.716;-122.060;2023-09-19T00:01:39;99786.14;;;23.92;37.16
51053;BME280;37093;37.716;-122.060;2023-09-19T00:04:07;99786.85;;;24.00;36.78
51053;BME280;37093;37.716;-122.060;2023-09-19T00:06:36;99786.07;;;23.48;37.83
51053;BME280;37093;37.716;-122.060;2023-09-19T00:09:05;99784.13;;;23.47;38.04
51053;BME280;37093;37.716;-122.060;2023-09-19T00:11:33;99782.15;;;23.65;37.51
51053;BME280;37093;37.716;-122.060;2023-09-19T00:14:01;99775.53;;;22.98;39.48
51053;BME280;37093;37.716;-122.060;2023-09-19T00:16:30;99783.84;;;23.66;38.45
51053;BME280;37093;37.716;-122.060;2023-09-19T00:18:58;99782.28;;;23.03;38.85
51053;BME280;37093;37.716;-122.060;2023-09-19T00:21:27;99778.56;;;23.49;38.64
51053;BME280;37093;37.716;-122.060;2023-09-19T00:23:55;99782.93;;;23.17;39.84
51053;BME280;37093;37.716;-122.060;2023-09-19T00:26:23;99774.05;;;23.18;39.35
51053;BME280;37093;37.716;-122.060;2023-09-19T00:28:53;99768.04;;;23.80;38.20
51053;BME280;37093;37.716;-122.060;2023-09-19T00:31:21;99773.09;;;24.09;37.77
51053;BME280;37093;37.716;-122.060;2023-09-19T00:33:49;99774.18;;;23.74;38.86
51053;BME280;37093;37.716;-122.060;2023-09-19T00:36:19;99776.88;;;23.67;39.07
51053;BME280;37093;37.716;-122.060;2023-09-19T00:38:47;99778.65;;;23.87;37.79
51053;BME280;37093;37.716;-122.060;2023-09-19T00:41:15;99781.11;;;23.69;38.22
51053;BME280;37093;37.716;-122.060;2023-09-19T00:43:44;99777.34;;;23.23;39.25
51053;BME280;37093;37.716;-122.060;2023-09-19T00:46:12;99774.67;;;23.69;38.87
51053;BME280;37093;37.716;-122.060;2023-09-19T00:48:42;99776.16;;;22.93;40.18
51053;BME280;37093;37.716;-122.060;2023-09-19T00:51:11;99776.82;;;23.23;40.15
51053;BME280;37093;37.716;-122.060;2023-09-19T00:53:40;99781.66;;;22.80;40.60
51053;BME280;37093;37.716;-122.060;2023-09-19T00:56:09;99781.70;;;22.51;41.88
51053;BME280;37093;37.716;-122.060;2023-09-19T00:58:37;99789.38;;;22.42;43.05
51053;BME280;37093;37.716;-122.060;2023-09-19T01:01:06;99786.23;;;23.50;41.28
51053;BME280;37093;37.716;-122.060;2023-09-19T01:03:34;99785.88;;;23.10;41.64
51053;BME280;37093;37.716;-122.060;2023-09-19T01:06:03;99789.58;;;23.19;41.61
51053;BME280;37093;37.716;-122.060;2023-09-19T01:08:31;99795.07;;;23.12;41.46
51053;BME280;37093;37.716;-122.060;2023-09-19T01:11:03;99801.22;;;23.29;41.63
51053;BME280;37093;37.716;-122.060;2023-09-19T01:13:41;99804.70;;;23.35;41.84
51053;BME280;37093;37.716;-122.060;2023-09-19T01:16:22;99811.10;;;22.34;43.77
51053;BME280;37093;37.716;-122.060;2023-09-19T01:18:55;99805.42;;;22.89;42.52
51053;BME280;37093;37.716;-122.060;2023-09-19T01:21:33;99806.88;;;22.78;42.74
51053;BME280;37093;37.716;-122.060;2023-09-19T01:24:27;99814.73;;;22.21;43.55
51053;BME280;37093;37.716;-122.060;2023-09-19T01:27:24;99812.08;;;22.54;43.57
51053;BME280;37093;37.716;-122.060;2023-09-19T01:30:01;99809.47;;;23.45;42.10
51053;BME280;37093;37.716;-122.060;2023-09-19T01:32:30;99818.01;;;22.52;43.52
51053;BME280;37093;37.716;-122.060;2023-09-19T01:34:59;99817.93;;;22.72;42.58
51053;BME280;37093;37.716;-122.060;2023-09-19T01:37:27;99825.32;;;22.30;43.74
51053;BME280;37093;37.716;-122.060;2023-09-19T01:39:58;99823.51;;;21.77;44.54
51053;BME280;37093;37.716;-122.060;2023-09-19T01:42:37;99829.47;;;22.09;44.33
51053;BME280;37093;37.716;-122.060;2023-09-19T01:45:11;99824.69;;;22.51;43.36
51053;BME280;37093;37.716;-122.060;2023-09-19T01:47:48;99826.96;;;22.21;43.88
51053;BME280;37093;37.716;-122.060;2023-09-19T01:50:26;99833.40;;;22.55;43.39
51053;BME280;37093;37.716;-122.060;2023-09-19T01:53:02;99835.96;;;22.59;43.39
51053;BME280;37093;37.716;-122.060;2023-09-19T01:55:39;99841.61;;;22.42;43.00
51053;BME280;37093;37.716;-122.060;2023-09-19T01:58:16;99847.03;;;21.46;45.43
51053;BME280;37093;37.716;-122.060;2023-09-19T02:00:48;99850.94;;;20.75;47.00
51053;BME280;37093;37.716;-122.060;2023-09-19T02:03:18;99847.09;;;21.06;47.21
51053;BME280;37093;37.716;-122.060;2023-09-19T02:05:50;99845.88;;;20.85;47.86
51053;BME280;37093;37.716;-122.060;2023-09-19T02:08:19;99842.90;;;21.43;46.35
51053;BME280;37093;37.716;-122.060;2023-09-19T02:10:48;99842.57;;;21.35;45.82
51053;BME280;37093;37.716;-122.060;2023-09-19T02:13:17;99845.84;;;21.34;47.02
51053;BME280;37093;37.716;-122.060;2023-09-19T02:15:46;99847.39;;;21.40;46.82
51053;BME280;37093;37.716;-122.060;2023-09-19T02:18:14;99851.29;;;21.23;47.18
51053;BME280;37093;37.716;-122.060;2023-09-19T02:20:43;99853.11;;;20.90;48.45
51053;BME280;37093;37.716;-122.060;2023-09-19T02:23:13;99853.29;;;21.50;47.34
51053;BME280;37093;37.716;-122.060;2023-09-19T02:25:41;99855.05;;;21.11;47.90
51053;BME280;37093;37.716;-122.060;2023-09-19T02:28:09;99861.42;;;21.56;46.90
51053;BME280;37093;37.716;-122.060;2023-09-19T02:30:37;99862.33;;;21.44;46.61
51053;BME280;37093;37.716;-122.060;2023-09-19T02:33:06;99864.21;;;22.28;45.52
51053;BME280;37093;37.716;-122.060;2023-09-19T02:35:35;99865.64;;;22.44;44.75
51053;BME280;37093;37.716;-122.060;2023-09-19T02:38:03;99865.68;;;22.62;44.55
51053;BME280;37093;37.716;-122.060;2023-09-19T02:40:31;99867.26;;;21.89;46.23
51053;BME280;37093;37.716;-122.060;2023-09-19T02:42:59;99868.80;;;21.61;46.82
51053;BME280;37093;37.716;-122.060;2023-09-19T02:45:28;99865.84;;;22.03;46.52
51053;BME280;37093;37.716;-122.060;2023-09-19T02:47:57;99866.43;;;21.34;47.81
51053;BME280;37093;37.716;-122.060;2023-09-19T02:50:26;99865.50;;;21.04;49.56
51053;BME280;37093;37.716;-122.060;2023-09-19T02:52:54;99862.44;;;21.41;48.67
51053;BME280;37093;37.716;-122.060;2023-09-19T02:55:22;99866.40;;;21.68;47.94
51053;BME280;37093;37.716;-122.060;2023-09-19T02:57:53;99870.72;;;22.41;46.99
51053;BME280;37093;37.716;-122.060;2023-09-19T03:00:22;99876.80;;;22.01;46.42
51053;BME280;37093;37.716;-122.060;2023-09-19T03:02:52;99878.23;;;21.81;47.70
51053;BME280;37093;37.716;-122.060;2023-09-19T03:05:21;99877.56;;;21.52;48.12
51053;BME280;37093;37.716;-122.060;2023-09-19T03:07:49;99876.75;;;21.42;49.26
51053;BME280;37093;37.716;-122.060;2023-09-19T03:10:18;99880.86;;;21.93;47.93
51053;BME280;37093;37.716;-122.060;2023-09-19T03:12:47;99881.64;;;21.67;48.19
51053;BME280;37093;37.716;-122.060;2023-09-19T03:15:15;99880.86;;;21.34;48.00
51053;BME280;37093;37.716;-122.060;2023-09-19T03:17:44;99886.34;;;20.41;51.29
51053;BME280;37093;37.716;-122.060;2023-09-19T03:20:13;99885.64;;;21.27;49.69
51053;BME280;37093;37.716;-122.060;2023-09-19T03:22:42;99882.01;;;21.66;48.93
51053;BME280;37093;37.716;-122.060;2023-09-19T03:25:10;99891.80;;;21.04;50.37
51053;BME280;37093;37.716;-122.060;2023-09-19T03:27:38;99894.22;;;21.09;50.51
51053;BME280;37093;37.716;-122.060;2023-09-19T03:30:08;99898.85;;;20.77;51.43
51053;BME280;37093;37.716;-122.060;2023-09-19T03:32:37;99901.81;;;20.98;50.99
51053;BME280;37093;37.716;-122.060;2023-09-19T03:35:06;99900.79;;;20.54;51.71
51053;BME280;37093;37.716;-122.060;2023-09-19T03:37:34;99895.88;;;21.03;51.17
51053;BME280;37093;37.716;-122.060;2023-09-19T03:40:03;99896.81;;;20.40;52.58
51053;BME280;37093;37.716;-122.060;2023-09-19T03:42:31;99894.70;;;20.99;50.44
51053;BME280;37093;37.716;-122.060;2023-09-19T03:45:00;99893.56;;;21.30;49.19
51053;BME280;37093;37.716;-122.060;2023-09-19T03:47:28;99892.18;;;21.63;48.80
51053;BME280;37093;37.716;-122.060;2023-09-19T03:49:57;99893.10;;;21.45;48.55
51053;BME280;37093;37.716;-122.060;2023-09-19T03:52:25;99898.54;;;21.54;48.93
51053;BME280;37093;37.716;-122.060;2023-09-19T03:54:54;99902.67;;;21.85;48.06
51053;BME280;37093;37.716;-122.060;2023-09-19T03:57:22;99906.42;;;21.45;48.29
51053;BME280;37093;37.716;-122.060;2023-09-19T03:59:51;99906.06;;;20.78;49.88
51053;BME280;37093;37.716;-122.060;2023-09-19T04:02:19;99903.57;;;20.34;51.09
51053;BME280;37093;37.716;-122.060;2023-09-19T04:04:47;99900.18;;;20.64;50.44
51053;BME280;37093;37.716;-122.060;2023-09-19T04:07:16;99901.23;;;21.10;48.85
51053;BME280;37093;37.716;-122.060;2023-09-19T04:09:44;99901.28;;;21.51;48.13
51053;BME280;37093;37.716;-122.060;2023-09-19T04:12:13;99904.23;;;21.45;48.18
51053;BME280;37093;37.716;-122.060;2023-09-19T04:14:41;99906.56;;;21.17;49.41
51053;BME280;37093;37.716;-122.060;2023-09-19T04:17:10;99910.44;;;20.60;50.36
51053;BME280;37093;37.716;-122.060;2023-09-19T04:19:38;99911.26;;;20.38;51.59
51053;BME280;37093;37.716;-122.060;2023-09-19T04:22:07;99907.52;;;20.67;50.67
51053;BME280;37093;37.716;-122.060;2023-09-19T04:24:35;99901.23;;;20.88;49.91
51053;BME280;37093;37.716;-122.060;2023-09-19T04:27:04;99901.12;;;20.94;49.54
51053;BME280;37093;37.716;-122.060;2023-09-19T04:29:32;99904.43;;;21.47;48.43
51053;BME280;37093;37.716;-122.060;2023-09-19T04:32:01;99904.72;;;21.00;49.29
51053;BME280;37093;37.716;-122.060;2023-09-19T04:34:29;99904.33;;;20.95;49.56
51053;BME280;37093;37.716;-122.060;2023-09-19T04:36:58;99902.12;;;21.32;48.27
51053;BME280;37093;37.716;-122.060;2023-09-19T04:39:26;99902.17;;;21.63;47.91
51053;BME280;37093;37.716;-122.060;2023-09-19T04:41:55;99902.95;;;21.94;47.70
51053;BME280;37093;37.716;-122.060;2023-09-19T04:44:23;99909.18;;;21.98;47.11
51053;BME280;37093;37.716;-122.060;2023-09-19T04:46:52;99909.04;;;22.03;47.04
51053;BME280;37093;37.716;-122.060;2023-09-19T04:49:20;99906.17;;;21.86;47.52
51053;BME280;37093;37.716;-122.060;2023-09-19T04:51:49;99902.74;;;21.64;48.03
51053;BME280;37093;37.716;-122.060;2023-09-19T04:54:17;99895.79;;;21.77;47.27
51053;BME280;37093;37.716;-122.060;2023-09-19T04:56:46;99898.26;;;21.90;46.98
51053;BME280;37093;37.716;-122.060;2023-09-19T04:59:13;99901.80;;;21.14;48.88
51053;BME280;37093;37.716;-122.060;2023-09-19T05:01:42;99903.76;;;21.47;47.79
51053;BME280;37093;37.716;-122.060;2023-09-19T05:04:11;99905.82;;;21.69;47.74
51053;BME280;37093;37.716;-122.060;2023-09-19T05:06:38;99899.24;;;21.73;47.03
51053;BME280;37093;37.716;-122.060;2023-09-19T05:09:07;99900.18;;;21.87;46.75
51053;BME280;37093;37.716;-122.060;2023-09-19T05:11:36;99898.08;;;21.92;46.56
51053;BME280;37093;37.716;-122.060;2023-09-19T05:14:04;99895.24;;;21.37;46.18
51053;BME280;37093;37.716;-122.060;2023-09-19T05:16:32;99896.88;;;21.08;48.62
51053;BME280;37093;37.716;-122.060;2023-09-19T05:19:01;99894.71;;;21.43;48.07
51053;BME280;37093;37.716;-122.060;2023-09-19T05:21:30;99894.47;;;21.50;49.22
51053;BME280;37093;37.716;-122.060;2023-09-19T05:23:58;99896.74;;;21.05;49.71
51053;BME280;37093;37.716;-122.060;2023-09-19T05:26:27;99895.26;;;21.58;48.74
51053;BME280;37093;37.716;-122.060;2023-09-19T05:28:55;99894.40;;;21.87;49.73
51053;BME280;37093;37.716;-122.060;2023-09-19T05:31:24;99892.72;;;21.38;50.03
51053;BME280;37093;37.716;-122.060;2023-09-19T05:33:52;99892.66;;;21.14;50.97
51053;BME280;37093;37.716;-122.060;2023-09-19T05:36:20;99889.64;;;21.03;51.19
51053;BME280;37093;37.716;-122.060;2023-09-19T05:38:49;99888.68;;;21.43;50.61
51053;BME280;37093;37.716;-122.060;2023-09-19T05:41:17;99887.08;;;21.46;50.22
51053;BME280;37093;37.716;-122.060;2023-09-19T05:43:46;99888.26;;;21.25;50.59
51053;BME280;37093;37.716;-122.060;2023-09-19T05:46:16;99891.97;;;21.56;50.67
51053;BME280;37093;37.716;-122.060;2023-09-19T05:48:44;99895.87;;;21.33;51.14
51053;BME280;37093;37.716;-122.060;2023-09-19T05:51:12;99893.82;;;21.48;50.47
51053;BME280;37093;37.716;-122.060;2023-09-19T05:53:41;99893.84;;;21.27;51.03
51053;BME280;37093;37.716;-122.060;2023-09-19T05:56:09;99896.83;;;21.24;50.73
51053;BME280;37093;37.716;-122.060;2023-09-19T05:58:37;99898.27;;;21.08;51.04
51053;BME280;37093;37.716;-122.060;2023-09-19T06:01:05;99903.42;;;20.99;51.15
51053;BME280;37093;37.716;-122.060;2023-09-19T06:03:34;99903.01;;;21.20;50.66
51053;BME280;37093;37.716;-122.060;2023-09-19T06:06:02;99905.89;;;21.32;50.12
51053;BME280;37093;37.716;-122.060;2023-09-19T06:25:13;99910.68;;;21.16;51.52
51053;BME280;37093;37.716;-122.060;2023-09-19T06:27:41;99909.84;;;19.96;49.68
51053;BME280;37093;37.716;-122.060;2023-09-19T06:30:10;99912.86;;;20.53;46.93
51053;BME280;37093;37.716;-122.060;2023-09-19T06:32:38;99910.46;;;22.33;45.87
51053;BME280;37093;37.716;-122.060;2023-09-19T06:35:07;99904.32;;;21.32;47.91
51053;BME280;37093;37.716;-122.060;2023-09-19T06:37:35;99899.36;;;21.74;47.62
51053;BME280;37093;37.716;-122.060;2023-09-19T06:40:06;99900.59;;;21.67;47.96
51053;BME280;37093;37.716;-122.060;2023-09-19T06:42:34;99898.59;;;21.67;47.98
51053;BME280;37093;37.716;-122.060;2023-09-19T06:45:02;99899.38;;;21.66;48.47
51053;BME280;37093;37.716;-122.060;2023-09-19T06:47:31;99901.12;;;21.62;48.26
51053;BME280;37093;37.716;-122.060;2023-09-19T06:49:59;99907.22;;;21.58;48.12
51053;BME280;37093;37.716;-122.060;2023-09-19T06:52:26;99906.42;;;21.61;48.18
51053;BME280;37093;37.716;-122.060;2023-09-19T06:54:55;99903.73;;;21.60;48.30
51053;BME280;37093;37.716;-122.060;2023-09-19T06:57:23;99908.24;;;21.60;48.27
51053;BME280;37093;37.716;-122.060;2023-09-19T06:59:52;99915.05;;;21.62;48.13
51053;BME280;37093;37.716;-122.060;2023-09-19T07:01:12;99915.36;;;21.03;48.33
51053;BME280;37093;37.716;-122.060;2023-09-19T07:03:41;99919.98;;;20.74;46.45
51053;BME280;37093;37.716;-122.060;2023-09-19T07:06:09;99917.39;;;21.77;44.78
51053;BME280;37093;37.716;-122.060;2023-09-19T07:08:37;99918.29;;;22.55;45.40
51053;BME280;37093;37.716;-122.060;2023-09-19T07:11:05;99916.65;;;21.66;47.14
51053;BME280;37093;37.716;-122.060;2023-09-19T07:13:34;99915.86;;;22.07;47.25
51053;BME280;37093;37.716;-122.060;2023-09-19T07:16:02;99913.96;;;21.43;48.49
51053;BME280;37093;37.716;-122.060;2023-09-19T07:18:30;99913.05;;;21.54;48.60
51053;BME280;37093;37.716;-122.060;2023-09-19T07:20:59;99911.70;;;21.47;48.79
51053;BME280;37093;37.716;-122.060;2023-09-19T07:23:27;99909.35;;;21.10;49.82
51053;BME280;37093;37.716;-122.060;2023-09-19T07:25:57;99906.52;;;21.22;49.34
51053;BME280;37093;37.716;-122.060;2023-09-19T07:28:25;99911.15;;;21.08;49.94
51053;BME280;37093;37.716;-122.060;2023-09-19T07:30:54;99910.14;;;20.89;50.49
51053;BME280;37093;37.716;-122.060;2023-09-19T07:33:22;99908.10;;;21.08;50.71
51053;BME280;37093;37.716;-122.060;2023-09-19T07:35:50;99909.53;;;21.06;50.39
51053;BME280;37093;37.716;-122.060;2023-09-19T07:38:18;99910.39;;;20.52;50.96
51053;BME280;37093;37.716;-122.060;2023-09-19T07:40:46;99913.07;;;20.58;51.17
51053;BME280;37093;37.716;-122.060;2023-09-19T07:43:14;99914.26;;;21.01;50.42
51053;BME280;37093;37.716;-122.060;2023-09-19T07:45:43;99922.77;;;20.93;50.58
51053;BME280;37093;37.716;-122.060;2023-09-19T07:48:11;99923.13;;;21.20;49.96
51053;BME280;37093;37.716;-122.060;2023-09-19T07:50:39;99922.36;;;21.02;50.63
51053;BME280;37093;37.716;-122.060;2023-09-19T07:53:07;99924.23;;;20.90;51.18
51053;BME280;37093;37.716;-122.060;2023-09-19T07:55:36;99925.74;;;20.61;51.51
51053;BME280;37093;37.716;-122.060;2023-09-19T07:58:04;99927.66;;;20.98;50.49
51053;BME280;37093;37.716;-122.060;2023-09-19T08:00:33;99925.02;;;20.89;50.66
51053;BME280;37093;37.716;-122.060;2023-09-19T08:03:01;99916.75;;;21.07;49.67
51053;BME280;37093;37.716;-122.060;2023-09-19T08:05:31;99916.28;;;20.92;49.64
51053;BME280;37093;37.716;-122.060;2023-09-19T08:07:59;99917.92;;;21.20;49.15
51053;BME280;37093;37.716;-122.060;2023-09-19T08:10:28;99912.02;;;20.88;49.52
51053;BME280;37093;37.716;-122.060;2023-09-19T08:12:56;99908.09;;;20.95;49.27
51053;BME280;37093;37.716;-122.060;2023-09-19T08:15:25;99909.34;;;20.97;48.75
51053;BME280;37093;37.716;-122.060;2023-09-19T08:17:54;99910.44;;;21.33;48.53
51053;BME280;37093;37.716;-122.060;2023-09-19T08:20:22;99915.21;;;21.06;48.88
51053;BME280;37093;37.716;-122.060;2023-09-19T08:22:53;99916.33;;;21.26;48.29
51053;BME280;37093;37.716;-122.060;2023-09-19T08:25:22;99912.64;;;20.94;48.46
51053;BME280;37093;37.716;-122.060;2023-09-19T08:27:50;99910.18;;;20.97;49.79
51053;BME280;37093;37.716;-122.060;2023-09-19T08:30:21;99906.40;;;20.72;50.62
51053;BME280;37093;37.716;-122.060;2023-09-19T08:32:49;99901.37;;;21.12;49.84
51053;BME280;37093;37.716;-122.060;2023-09-19T08:35:18;99896.11;;;20.85;49.93
51053;BME280;37093;37.716;-122.060;2023-09-19T08:37:46;99899.25;;;20.82;49.76
51053;BME280;37093;37.716;-122.060;2023-09-19T08:40:14;99897.57;;;20.87;50.09
51053;BME280;37093;37.716;-122.060;2023-09-19T08:42:50;99900.16;;;20.83;51.11
51053;BME280;37093;37.716;-122.060;2023-09-19T08:45:19;99897.85;;;21.06;50.41
51053;BME280;37093;37.716;-122.060;2023-09-19T08:47:53;99896.62;;;20.87;51.58
51053;BME280;37093;37.716;-122.060;2023-09-19T08:50:28;99894.44;;;20.33;51.78
51053;BME280;37093;37.716;-122.060;2023-09-19T08:53:01;99896.61;;;20.54;52.13
51053;BME280;37093;37.716;-122.060;2023-09-19T08:55:31;99895.77;;;20.75;50.93
51053;BME280;37093;37.716;-122.060;2023-09-19T08:58:03;99893.23;;;20.76;51.16
51053;BME280;37093;37.716;-122.060;2023-09-19T09:00:31;99894.17;;;20.34;52.83
51053;BME280;37093;37.716;-122.060;2023-09-19T09:03:01;99890.10;;;20.65;52.12
51053;BME280;37093;37.716;-122.060;2023-09-19T09:05:32;99893.42;;;20.76;53.19
51053;BME280;37093;37.716;-122.060;2023-09-19T09:08:00;99891.15;;;20.48;53.52
51053;BME280;37093;37.716;-122.060;2023-09-19T09:10:29;99889.18;;;20.64;53.55
51053;BME280;37093;37.716;-122.060;2023-09-19T09:12:59;99887.35;;;20.57;53.79
51053;BME280;37093;37.716;-122.060;2023-09-19T09:15:28;99887.69;;;19.97;54.73
51053;BME280;37093;37.716;-122.060;2023-09-19T09:17:57;99889.94;;;20.29;54.81
51053;BME280;37093;37.716;-122.060;2023-09-19T09:20:25;99887.89;;;19.97;55.56
51053;BME280;37093;37.716;-122.060;2023-09-19T09:22:54;99884.21;;;19.77;56.59
51053;BME280;37093;37.716;-122.060;2023-09-19T09:25:23;99884.93;;;19.87;55.74
51053;BME280;37093;37.716;-122.060;2023-09-19T09:28:21;99890.02;;;20.29;53.39
51053;BME280;37093;37.716;-122.060;2023-09-19T09:30:50;99891.74;;;19.54;55.51
51053;BME280;37093;37.716;-122.060;2023-09-19T09:33:18;99894.94;;;19.76;55.40
51053;BME280;37093;37.716;-122.060;2023-09-19T09:35:51;99893.76;;;19.83;54.96
51053;BME280;37093;37.716;-122.060;2023-09-19T09:38:20;99890.37;;;19.46;55.87
51053;BME280;37093;37.716;-122.060;2023-09-19T09:40:50;99887.77;;;19.88;56.58
51053;BME280;37093;37.716;-122.060;2023-09-19T09:43:27;99883.35;;;19.60;55.20
51053;BME280;37093;37.716;-122.060;2023-09-19T09:46:13;99887.03;;;19.39;55.19
51053;BME280;37093;37.716;-122.060;2023-09-19T09:48:42;99883.67;;;20.28;53.89
51053;BME280;37093;37.716;-122.060;2023-09-19T09:51:10;99881.84;;;19.43;55.21
51053;BME280;37093;37.716;-122.060;2023-09-19T09:53:39;99877.62;;;19.56;54.85
51053;BME280;37093;37.716;-122.060;2023-09-19T09:56:08;99874.80;;;19.87;54.94
51053;BME280;37093;37.716;-122.060;2023-09-19T09:58:37;99873.22;;;20.03;53.64
51053;BME280;37093;37.716;-122.060;2023-09-19T10:01:06;99869.57;;;19.70;54.47
51053;BME280;37093;37.716;-122.060;2023-09-19T10:03:36;99869.13;;;20.01;53.86
51053;BME280;37093;37.716;-122.060;2023-09-19T10:06:07;99868.81;;;19.84;53.61
51053;BME280;37093;37.716;-122.060;2023-09-19T10:08:35;99868.35;;;20.30;53.06
51053;BME280;37093;37.716;-122.060;2023-09-19T10:11:16;99869.23;;;20.36;52.66
51053;BME280;37093;37.716;-122.060;2023-09-19T10:13:45;99866.48;;;20.55;52.50
51053;BME280;37093;37.716;-122.060;2023-09-19T10:16:15;99867.96;;;20.24;52.59
51053;BME280;37093;37.716;-122.060;2023-09-19T10:18:44;99869.02;;;19.44;54.38
51053;BME280;37093;37.716;-122.060;2023-09-19T10:21:13;99868.21;;;19.97;52.90
51053;BME280;37093;37.716;-122.060;2023-09-19T10:23:43;99869.44;;;20.42;52.60
51053;BME280;37093;37.716;-122.060;2023-09-19T10:26:12;99866.85;;;20.43;52.11
51053;BME280;37093;37.716;-122.060;2023-09-19T10:28:46;99867.01;;;20.26;51.56
51053;BME280;37093;37.716;-122.060;2023-09-19T10:31:19;99863.44;;;19.99;52.87
51053;BME280;37093;37.716;-122.060;2023-09-19T10:33:50;99859.10;;;20.21;52.71
51053;BME280;37093;37.716;-122.060;2023-09-19T10:36:20;99860.50;;;20.29;51.92
51053;BME280;37093;37.716;-122.060;2023-09-19T10:38:51;99860.48;;;20.62;51.72
51053;BME280;37093;37.716;-122.060;2023-09-19T10:41:22;99855.00;;;20.48;51.71
51053;BME280;37093;37.716;-122.060;2023-09-19T10:43:52;99856.14;;;20.81;51.80
51053;BME280;37093;37.716;-122.060;2023-09-19T10:46:22;99851.68;;;21.00;51.59
51053;BME280;37093;37.716;-122.060;2023-09-19T10:48:51;99850.71;;;20.87;50.86
51053;BME280;37093;37.716;-122.060;2023-09-19T10:51:23;99852.38;;;20.95;50.69
51053;BME280;37093;37.716;-122.060;2023-09-19T10:53:55;99850.93;;;20.90;50.87
51053;BME280;37093;37.716;-122.060;2023-09-19T10:56:27;99845.54;;;20.97;50.71
51053;BME280;37093;37.716;-122.060;2023-09-19T10:59:07;99842.78;;;20.77;50.97
51053;BME280;37093;37.716;-122.060;2023-09-19T11:01:44;99841.86;;;20.68;51.04
51053;BME280;37093;37.716;-122.060;2023-09-19T11:04:30;99838.15;;;20.81;51.84
51053;BME280;37093;37.716;-122.060;2023-09-19T11:07:02;99839.37;;;20.73;51.51
51053;BME280;37093;37.716;-122.060;2023-09-19T11:09:49;99837.18;;;20.67;51.68
51053;BME280;37093;37.716;-122.060;2023-09-19T11:12:50;99837.29;;;20.57;51.33
51053;BME280;37093;37.716;-122.060;2023-09-19T11:16:04;99839.58;;;20.90;51.16
51053;BME280;37093;37.716;-122.060;2023-09-19T11:19:05;99838.45;;;20.58;50.67
51053;BME280;37093;37.716;-122.060;2023-09-19T11:21:42;99836.55;;;21.04;50.77
51053;BME280;37093;37.716;-122.060;2023-09-19T11:24:35;99837.54;;;20.53;50.88
51053;BME280;37093;37.716;-122.060;2023-09-19T11:27:14;99834.45;;;20.51;51.28
51053;BME280;37093;37.716;-122.060;2023-09-19T11:29:42;99831.55;;;20.52;50.81
51053;BME280;37093;37.716;-122.060;2023-09-19T11:32:10;99828.11;;;20.53;50.84
51053;BME280;37093;37.716;-122.060;2023-09-19T11:34:43;99832.07;;;20.68;50.47
51053;BME280;37093;37.716;-122.060;2023-09-19T11:38:16;99829.47;;;20.74;50.86
51053;BME280;37093;37.716;-122.060;2023-09-19T11:40:56;99830.05;;;20.37;51.57
51053;BME280;37093;37.716;-122.060;2023-09-19T11:44:37;99820.67;;;20.57;51.43
51053;BME280;37093;37.716;-122.060;2023-09-19T11:47:06;99816.79;;;20.62;50.80
51053;BME280;37093;37.716;-122.060;2023-09-19T11:49:41;99821.04;;;20.78;50.72
51053;BME280;37093;37.716;-122.060;2023-09-19T11:52:10;99817.83;;;20.55;52.19
51053;BME280;37093;37.716;-122.060;2023-09-19T11:54:41;99815.98;;;20.56;51.79
51053;BME280;37093;37.716;-122.060;2023-09-19T11:57:10;99811.26;;;20.54;51.38
51053;BME280;37093;37.716;-122.060;2023-09-19T11:59:39;99809.08;;;20.60;51.26
51053;BME280;37093;37.716;-122.060;2023-09-19T12:02:08;99811.14;;;20.32;51.50
51053;BME280;37093;37.716;-122.060;2023-09-19T12:04:41;99816.39;;;20.39;52.31
51053;BME280;37093;37.716;-122.060;2023-09-19T12:07:12;99816.90;;;20.15;52.19
51053;BME280;37093;37.716;-122.060;2023-09-19T12:09:41;99820.38;;;20.16;53.06
51053;BME280;37093;37.716;-122.060;2023-09-19T12:12:10;99816.67;;;20.06;52.13
51053;BME280;37093;37.716;-122.060;2023-09-19T12:14:38;99816.54;;;20.31;52.31
51053;BME280;37093;37.716;-122.060;2023-09-19T12:17:07;99818.53;;;20.35;51.73
51053;BME280;37093;37.716;-122.060;2023-09-19T12:19:35;99818.54;;;20.31;51.65
51053;BME280;37093;37.716;-122.060;2023-09-19T12:22:04;99815.33;;;20.80;51.05
51053;BME280;37093;37.716;-122.060;2023-09-19T12:24:32;99816.48;;;20.57;51.07
51053;BME280;37093;37.716;-122.060;2023-09-19T12:27:03;99816.83;;;20.18;51.78
51053;BME280;37093;37.716;-122.060;2023-09-19T12:29:41;99814.03;;;20.58;51.60
51053;BME280;37093;37.716;-122.060;2023-09-19T12:32:10;99816.81;;;20.38;51.59
51053;BME280;37093;37.716;-122.060;2023-09-19T12:34:38;99819.38;;;20.41;51.60
51053;BME280;37093;37.716;-122.060;2023-09-19T12:37:08;99820.40;;;20.32;51.33
51053;BME280;37093;37.716;-122.060;2023-09-19T12:39:38;99821.73;;;20.18;52.57
51053;BME280;37093;37.716;-122.060;2023-09-19T12:42:08;99819.41;;;19.72;53.14
51053;BME280;37093;37.716;-122.060;2023-09-19T12:44:37;99817.79;;;19.88;54.12
51053;BME280;37093;37.716;-122.060;2023-09-19T12:47:12;99818.17;;;19.27;56.53
51053;BME280;37093;37.716;-122.060;2023-09-19T12:50:14;99821.38;;;18.51;57.91
51053;BME280;37093;37.716;-122.060;2023-09-19T12:52:44;99827.27;;;19.13;55.98
51053;BME280;37093;37.716;-122.060;2023-09-19T12:55:30;99827.22;;;18.64;56.28
51053;BME280;37093;37.716;-122.060;2023-09-19T12:58:11;99829.83;;;19.13;55.38
51053;BME280;37093;37.716;-122.060;2023-09-19T13:00:41;99825.51;;;19.44;54.91
51053;BME280;37093;37.716;-122.060;2023-09-19T13:03:13;99824.78;;;19.72;53.90
51053;BME280;37093;37.716;-122.060;2023-09-19T13:05:59;99826.40;;;19.76;53.83